NCAR-RAP Real-Time Weather Data

Output produced by METARs form (14 October 2019  22:33 UTC)
found at http://weather.rap.ucar.edu/surface/
 
KHFD 142153Z 17005KT 10SM CLR 18/12 A2989 RMK AO2 SLP123 T01830117
KHFD 142053Z 19008KT 10SM CLR 20/12 A2988 RMK AO2 SLP118 T02000117 55009
KHFD 141953Z 18006KT 10SM CLR 21/11 A2987 RMK AO2 SLP115 T02110111
KHFD 141853Z 19008KT 10SM CLR 21/11 A2988 RMK AO2 SLP118 T02110106
KHFD 141753Z VRB06KT 10SM CLR 20/12 A2991 RMK AO2 SLP127 T02000117 10200 20089 58032
KHFD 141653Z 00000KT 10SM CLR 18/12 A2994 RMK AO2 SLP137 T01780122
KHFD 141553Z 08003KT 9SM SCT018 15/11 A2997 RMK AO2 SLP149 T01500106
KHFD 141542Z 00000KT 10SM FEW011 BKN018 15/11 A2998 RMK AO2 T01500106
KHFD 141535Z 00000KT 10SM BKN011 14/10 A2999 RMK AO2 T01390100
KHFD 141453Z 00000KT 9SM BKN009 OVC011 13/09 A3000 RMK AO2 SLP159 T01280094 58002
KHFD 141353Z 00000KT 10SM BKN008 OVC013 11/08 A3001 RMK AO2 SLP162 T01060078
KHFD 141253Z 00000KT 10SM OVC008 09/07 A3001 RMK AO2 SLP162 T00940072
KHFD 141153Z 02005KT 10SM OVC007 09/07 A3001 RMK AO2 SLP161 T00890072 10106 20067 53012
KHFD 141101Z 35003KT 10SM BKN009 OVC018 09/07 A3000 RMK AO2 T00890072
KHFD 141053Z 35004KT 10SM SCT011 OVC018 09/07 A3000 RMK AO2 SLP158 T00890072
KHFD 141038Z 00000KT 9SM BKN018 08/07 A2999 RMK AO2 T00830067
KHFD 140953Z 00000KT 10SM CLR 08/07 A2998 RMK AO2 SLP151 T00830072
KHFD 140901Z AUTO 00000KT 4SM BR CLR 08/07 A2997 RMK AO2 T00780072
KHFD 140853Z AUTO 11003KT 1 1/2SM BR CLR 08/07 A2997 RMK AO2 SLP150 T00830072 56015
KHFD 140753Z AUTO 00000KT 10SM SCT070 09/08 A2998 RMK AO2 SLP151 T00940078
KHFD 140653Z AUTO 00000KT 10SM OVC060 10/09 A3000 RMK AO2 SLP157 T01000089
KHFD 140553Z AUTO 14003KT 10SM BKN055 OVC075 10/09 A3002 RMK AO2 SLP165 T01000089 10122 20083 56006
KHFD 140453Z AUTO 00000KT 10SM FEW060 BKN075 09/08 A3003 RMK AO2 SLP168 T00940083 401890083
KHFD 140353Z 00000KT 10SM SCT075 09/08 A3002 RMK AO2 SLP164 T00940078
KHFD 140253Z 00000KT 10SM BKN065 10/08 A3004 RMK AO2 SLP171 T01000083 58001
KHFD 140153Z 00000KT 10SM SCT070 SCT085 09/07 A3003 RMK AO2 SLP170 T00940072
KHFD 140053Z 15003KT 10SM FEW085 10/07 A3005 RMK AO2 SLP174 T01000067
KHFD 132353Z 18003KT 10SM CLR 11/08 A3004 RMK AO2 SLP172 T01110078 10189 20111 53002
KHFD 132253Z 00000KT 10SM CLR 12/08 A3003 RMK AO2 SLP169 T01220083
KHFD 132153Z 14003KT 10SM CLR 13/08 A3003 RMK AO2 SLP168 T01330083
KHFD 132053Z 12004KT 10SM CLR 16/06 A3003 RMK AO2 SLP169 T01610061 58009
KHFD 131953Z 16004KT 10SM CLR 18/02 A3004 RMK AO2 SLP173 T01830022
KHFD 131853Z 00000KT 10SM CLR 18/02 A3005 RMK AO2 SLP176 T01830017
KHFD 131753Z VRB03KT 10SM CLR 18/03 A3006 RMK AO2 SLP179 T01830028 10183 20117 58017
KHFD 131653Z 36005KT 10SM CLR 17/03 A3008 RMK AO2 SLP187 T01720033
KHFD 131553Z 36005KT 10SM CLR 16/05 A3010 RMK AO2 SLP192 T01560050
KHFD 131453Z 35006KT 10SM CLR 15/04 A3011 RMK AO2 SLP195 T01500044 50007
KHFD 131353Z 34010KT 10SM CLR 13/04 A3011 RMK AO2 SLP197 T01330044
KHFD 131253Z 33008KT 10SM CLR 13/05 A3010 RMK AO2 SLP192 T01280050
KHFD 131153Z 34006KT 10SM CLR 12/05 A3009 RMK AO2 SLP188 T01170050 10133 20100 53024
KHFD 131053Z 33008G15KT 10SM BKN044 12/06 A3007 RMK AO2 SLP181 T01220056
KHFD 130953Z 33005KT 10SM OVC045 13/07 A3003 RMK AO2 SLP170 T01330067
KHFD 130853Z AUTO 33008KT 10SM BKN044 13/07 A3002 RMK AO2 SLP164 T01330072 53008
KHFD 130753Z AUTO 00000KT 10SM SCT050 11/09 A3000 RMK AO2 SLP158 T01110094
KHFD 130653Z AUTO 18003KT 10SM SCT041 OVC050 12/10 A2999 RMK AO2 SLP157 T01170100
KHFD 130553Z AUTO 00000KT 10SM OVC055 12/11 A2999 RMK AO2 SLP155 T01170106 10117 20100 53002
KHFD 130453Z AUTO 00000KT 10SM OVC046 11/10 A2998 RMK AO2 SLP153 T01110100 401670100
KHFD 130353Z 00000KT 10SM OVC045 11/10 A2998 RMK AO2 SLP153 T01110100
KHFD 130253Z 00000KT 10SM BKN044 11/09 A2999 RMK AO2 SLP154 T01060094 51011
KHFD 130153Z 00000KT 10SM CLR 10/09 A2998 RMK AO2 SLP151 T01000089
KHFD 130053Z 00000KT 10SM CLR 10/09 A2996 RMK AO2 SLP145 T01000089
KHFD 122353Z 00000KT 10SM CLR 12/10 A2995 RMK AO2 SLP142 T01170100 10167 20117 51010
KHFD 122253Z 00000KT 10SM CLR 12/10 A2995 RMK AO2 SLP140 T01220100